createdAt,value
2023-03-27T00:00:42.395Z,95.90
2023-03-27T00:04:54.710Z,102.07
2023-03-27T00:08:56.897Z,99.25
2023-03-27T00:12:59.562Z,100.22
2023-03-27T00:17:02.857Z,93.85
2023-03-27T00:21:05.350Z,94.65
2023-03-27T00:25:08.569Z,124.50
2023-03-27T00:29:13.456Z,97.22
2023-03-27T00:33:15.848Z,98.25
2023-03-27T00:37:18.154Z,98.95
2023-03-27T00:41:21.654Z,103.97
2023-03-27T00:45:28.886Z,97.65
2023-03-27T00:49:35.609Z,93.18
2023-03-27T00:53:37.769Z,96.93
2023-03-27T00:57:42.245Z,97.53
2023-03-27T01:01:45.711Z,88.85
2023-03-27T01:05:50.074Z,80.00
2023-03-27T01:09:52.493Z,71.03
2023-03-27T01:14:36.629Z,70.57
2023-03-27T01:18:54.287Z,73.55
2023-03-27T01:23:35.934Z,74.37
2023-03-27T01:28:02.888Z,73.30
2023-03-27T01:32:24.203Z,84.07
2023-03-27T01:36:43.061Z,82.13
2023-03-27T01:40:56.854Z,81.05
2023-03-27T01:45:12.128Z,77.97
2023-03-27T01:49:39.994Z,77.47
2023-03-27T01:53:56.684Z,87.90
2023-03-27T01:58:03.223Z,82.45
2023-03-27T02:02:13.437Z,77.90
2023-03-27T02:06:23.884Z,73.35
2023-03-27T02:10:32.682Z,76.15
2023-03-27T02:14:46.262Z,79.18
2023-03-27T02:19:11.469Z,83.47
2023-03-27T02:23:13.998Z,81.25
2023-03-27T02:27:31.284Z,85.80
2023-03-27T02:31:52.181Z,66.10
2023-03-27T02:36:11.176Z,88.72
2023-03-27T02:40:16.531Z,75.05
2023-03-27T02:44:46.449Z,76.05
2023-03-27T02:48:54.126Z,75.13
2023-03-27T02:53:00.159Z,74.03
2023-03-27T02:57:10.603Z,75.97
2023-03-27T03:05:44.794Z,85.75
2023-03-27T03:09:46.865Z,69.75
2023-03-27T03:13:48.865Z,87.93
2023-03-27T03:17:51.479Z,77.35
2023-03-27T03:21:53.791Z,84.90
2023-03-27T03:25:56.997Z,77.35
2023-03-27T03:30:09.464Z,87.20
2023-03-27T03:34:34.809Z,72.32
2023-03-27T03:38:38.108Z,77.60
2023-03-27T03:42:49.962Z,80.32
2023-03-27T03:46:54.416Z,74.68
2023-03-27T03:50:56.999Z,87.47
2023-03-27T03:54:59.322Z,80.18
2023-03-27T03:59:01.618Z,83.78
2023-03-27T04:03:05.736Z,75.57
2023-03-27T04:07:09.892Z,82.38
2023-03-27T04:11:18.770Z,86.00
2023-03-27T04:15:40.827Z,91.97
2023-03-27T04:19:54.195Z,85.53
2023-03-27T04:24:02.330Z,100.88
2023-03-27T04:28:16.946Z,110.97
2023-03-27T04:32:26.309Z,151.30
2023-03-27T04:36:57.650Z,204.55
2023-03-27T04:41:01.701Z,212.02
2023-03-27T04:45:04.490Z,176.60
2023-03-27T04:49:06.664Z,163.70
2023-03-27T04:53:31.140Z,184.73
2023-03-27T04:57:35.124Z,199.10
2023-03-27T05:01:37.246Z,188.63
2023-03-27T05:06:05.372Z,174.45
2023-03-27T05:10:08.115Z,178.82
2023-03-27T05:14:11.333Z,141.20
2023-03-27T05:18:16.672Z,141.60
2023-03-27T05:22:21.778Z,99.93
2023-03-27T05:26:32.767Z,91.70
2023-03-27T05:30:35.412Z,91.75
2023-03-27T05:34:54.635Z,75.18
2023-03-27T05:38:58.657Z,73.93
2023-03-27T05:43:07.379Z,69.80
2023-03-27T05:47:10.958Z,67.97
2023-03-27T05:51:13.291Z,69.22
2023-03-27T05:55:15.807Z,65.88
2023-03-27T05:59:19.268Z,58.70
2023-03-27T06:03:24.921Z,51.78
2023-03-27T06:07:39.088Z,50.13
2023-03-27T06:11:42.940Z,60.83
2023-03-27T06:15:45.274Z,48.45
2023-03-27T06:20:10.874Z,40.17
2023-03-27T06:24:13.084Z,42.45
2023-03-27T06:28:15.385Z,43.45
2023-03-27T06:32:22.199Z,43.10
2023-03-27T06:36:28.917Z,34.15
2023-03-27T06:40:35.180Z,40.80
2023-03-27T06:44:37.284Z,39.58
2023-03-27T06:49:04.620Z,35.97
2023-03-27T06:53:19.696Z,39.88
2023-03-27T06:57:25.973Z,35.20
2023-03-27T07:01:31.688Z,31.55
2023-03-27T07:06:06.295Z,25.10
2023-03-27T07:10:23.002Z,22.02
2023-03-27T07:14:25.000Z,30.17
2023-03-27T07:18:27.211Z,26.85
2023-03-27T07:22:31.065Z,29.75
2023-03-27T07:26:39.735Z,29.02
2023-03-27T07:30:47.271Z,27.75
2023-03-27T07:34:56.284Z,29.33
2023-03-27T07:39:17.070Z,31.05
2023-03-27T07:43:19.555Z,30.33
2023-03-27T07:47:21.995Z,27.65
2023-03-27T07:51:24.967Z,22.38
2023-03-27T07:55:29.679Z,19.27
2023-03-27T07:59:41.748Z,19.55
2023-03-27T08:03:50.733Z,17.17
2023-03-27T08:07:54.617Z,23.00
2023-03-27T08:12:15.686Z,17.85
2023-03-27T08:16:27.857Z,17.13
2023-03-27T08:20:31.673Z,24.83
2023-03-27T08:24:34.331Z,16.23
2023-03-27T08:28:43.640Z,16.38
2023-03-27T08:32:46.367Z,21.52
2023-03-27T08:36:49.609Z,16.08
2023-03-27T08:40:54.619Z,21.08
2023-03-27T08:45:27.901Z,16.73
2023-03-27T08:49:39.934Z,21.70
2023-03-27T08:54:27.436Z,14.68
2023-03-27T08:58:33.049Z,17.48
2023-03-27T09:02:48.498Z,20.00
2023-03-27T09:07:01.773Z,18.40
2023-03-27T09:11:45.160Z,14.32
2023-03-27T09:16:00.739Z,18.40
2023-03-27T09:20:19.945Z,26.67
2023-03-27T09:24:56.813Z,10.65
2023-03-27T09:29:25.937Z,17.70
2023-03-27T09:33:41.512Z,11.73
2023-03-27T09:37:44.886Z,9.57
2023-03-27T09:41:51.075Z,6.90
2023-03-27T09:45:56.653Z,16.80
2023-03-27T09:50:11.894Z,14.38
2023-03-27T09:54:32.066Z,11.43
2023-03-27T09:58:45.921Z,7.75
2023-03-27T10:02:48.070Z,9.43
2023-03-27T10:07:00.129Z,14.82
2023-03-27T10:11:24.865Z,11.77
2023-03-27T10:15:35.165Z,20.35
2023-03-27T10:19:42.116Z,15.40
2023-03-27T10:23:49.788Z,14.43
2023-03-27T10:28:18.604Z,10.30
2023-03-27T10:32:49.692Z,6.07
2023-03-27T10:37:28.423Z,13.48
2023-03-27T10:41:49.374Z,8.13
2023-03-27T10:45:54.794Z,7.43
2023-03-27T10:50:09.717Z,9.60
2023-03-27T10:54:51.214Z,9.40
2023-03-27T10:59:00.479Z,6.85
2023-03-27T11:03:23.874Z,6.20
2023-03-27T11:07:46.672Z,10.82
2023-03-27T11:12:09.479Z,11.27
2023-03-27T11:16:25.584Z,4.60
2023-03-27T11:20:51.852Z,7.22
2023-03-27T11:25:29.843Z,11.82
2023-03-27T11:29:58.856Z,7.47
2023-03-27T11:34:12.987Z,6.40
2023-03-27T11:38:28.764Z,9.93
2023-03-27T11:42:36.845Z,9.30
2023-03-27T11:47:01.239Z,7.50
2023-03-27T11:51:36.902Z,6.45
2023-03-27T11:56:17.593Z,7.03
2023-03-27T12:00:39.270Z,4.47
2023-03-27T12:05:00.479Z,4.60
2023-03-27T12:09:22.146Z,4.32
2023-03-27T12:14:17.711Z,8.65
2023-03-27T12:19:13.731Z,6.68
2023-03-27T12:24:15.365Z,3.88
2023-03-27T12:29:22.670Z,6.45
2023-03-27T12:33:56.106Z,8.30
2023-03-27T12:38:03.181Z,5.20
2023-03-27T12:42:14.517Z,9.70
2023-03-27T12:46:25.182Z,4.88
2023-03-27T12:50:34.457Z,3.25
2023-03-27T12:54:39.147Z,4.00
2023-03-27T12:59:12.392Z,3.03
2023-03-27T13:03:48.651Z,4.30
2023-03-27T13:19:45.758Z,5.10
2023-03-27T13:24:38.376Z,3.50
2023-03-27T13:29:20.511Z,4.60
2023-03-27T13:34:57.172Z,3.65
2023-03-27T13:39:59.598Z,2.55
2023-03-27T13:45:00.611Z,4.57
2023-03-27T14:09:39.936Z,4.55
2023-03-27T14:14:34.469Z,4.93
2023-03-27T14:18:55.827Z,6.07
2023-03-27T14:23:15.103Z,5.13
2023-03-27T14:27:49.189Z,7.80
2023-03-27T14:36:06.762Z,4.60
2023-03-27T14:40:30.685Z,5.75
2023-03-27T14:44:36.309Z,4.93
2023-03-27T14:48:51.285Z,6.60
2023-03-27T14:52:57.784Z,8.43
2023-03-27T14:57:09.207Z,11.20
2023-03-27T15:01:18.609Z,4.82
2023-03-27T15:05:26.518Z,6.60
2023-03-27T15:09:37.313Z,4.97
2023-03-27T15:13:57.511Z,4.57
2023-03-27T15:18:22.421Z,5.25
2023-03-27T15:22:32.044Z,5.25
2023-03-27T15:26:35.411Z,6.55
2023-03-27T15:30:44.964Z,3.47
2023-03-27T15:34:51.196Z,3.63
2023-03-27T15:38:58.498Z,7.15
2023-03-27T15:43:14.042Z,2.75
2023-03-27T15:47:25.005Z,1.48
2023-03-27T15:51:29.906Z,3.70
2023-03-27T15:55:47.693Z,2.65
2023-03-27T15:59:52.871Z,2.58
2023-03-27T16:04:01.720Z,6.57
2023-03-27T16:08:05.310Z,5.43
2023-03-27T16:12:11.033Z,4.55
2023-03-27T16:16:24.079Z,4.13
2023-03-27T16:20:26.047Z,4.30
2023-03-27T16:24:27.981Z,4.78
2023-03-27T16:28:30.573Z,6.05
2023-03-27T16:32:32.612Z,5.25
2023-03-27T16:36:35.566Z,5.68
2023-03-27T16:40:37.485Z,5.82
2023-03-27T16:44:39.616Z,6.97
2023-03-27T16:48:41.812Z,9.55
2023-03-27T16:52:43.821Z,10.80
2023-03-27T16:56:46.167Z,13.48
2023-03-27T17:00:48.450Z,8.10
2023-03-27T17:04:50.536Z,11.07
2023-03-27T17:08:55.440Z,10.10
2023-03-27T17:12:57.964Z,9.55
2023-03-27T17:16:59.614Z,8.05
2023-03-27T17:21:01.974Z,7.60
2023-03-27T17:25:06.251Z,5.93
2023-03-27T17:29:10.227Z,9.40
2023-03-27T17:33:13.330Z,8.32
2023-03-27T17:37:16.897Z,6.70
2023-03-27T17:41:20.177Z,8.00
2023-03-27T17:45:23.896Z,6.55
2023-03-27T17:49:25.922Z,10.43
2023-03-27T17:53:29.103Z,14.77
2023-03-27T17:57:30.841Z,10.50
2023-03-27T18:01:33.326Z,8.90
2023-03-27T18:05:40.977Z,7.43
2023-03-27T18:09:43.158Z,10.25
2023-03-27T18:13:51.192Z,12.50
2023-03-27T18:17:53.380Z,8.52
2023-03-27T18:21:55.662Z,9.30
2023-03-27T18:25:57.866Z,11.18
2023-03-27T18:29:59.845Z,14.00
2023-03-27T18:34:02.997Z,10.07
2023-03-27T18:38:05.754Z,42.28
2023-03-27T18:42:08.684Z,8.32
2023-03-27T18:46:16.488Z,5.10
2023-03-27T18:50:18.738Z,7.88
2023-03-27T18:54:21.130Z,7.95
2023-03-27T18:58:29.597Z,8.32
2023-03-27T19:02:32.253Z,7.90
2023-03-27T19:06:36.181Z,9.27
2023-03-27T19:10:39.099Z,10.73
2023-03-27T19:15:00.439Z,10.60
2023-03-27T19:19:06.158Z,7.85
2023-03-27T19:23:14.276Z,7.07
2023-03-27T19:27:23.919Z,7.90
2023-03-27T19:31:28.217Z,8.80
2023-03-27T19:35:33.106Z,6.68
2023-03-27T19:39:35.135Z,9.55
2023-03-27T19:43:37.361Z,10.85
2023-03-27T19:47:39.436Z,12.68
2023-03-27T19:51:41.812Z,7.82
2023-03-27T19:55:46.723Z,6.18
2023-03-27T19:59:48.694Z,5.70
2023-03-27T20:03:50.391Z,11.02
2023-03-27T20:07:52.421Z,8.88
2023-03-27T20:11:54.901Z,7.30
2023-03-27T20:15:58.033Z,6.65
2023-03-27T20:20:00.793Z,8.05
2023-03-27T20:24:05.710Z,7.20
2023-03-27T20:28:12.660Z,11.23
2023-03-27T20:32:16.759Z,9.73
2023-03-27T20:36:22.929Z,7.63
2023-03-27T20:40:27.834Z,8.30
2023-03-27T20:44:35.460Z,6.45
2023-03-27T20:48:41.566Z,8.50
2023-03-27T20:52:46.771Z,12.30
2023-03-27T20:56:48.831Z,9.57
2023-03-27T21:00:52.860Z,8.43
2023-03-27T21:04:54.888Z,15.40
2023-03-27T21:08:56.889Z,9.65
2023-03-27T21:12:59.627Z,15.52
2023-03-27T21:17:02.147Z,8.82
2023-03-27T21:21:04.857Z,20.38
2023-03-27T21:25:07.317Z,10.52
2023-03-27T21:29:12.426Z,9.65
2023-03-27T21:33:15.887Z,11.77
2023-03-27T21:37:17.910Z,11.88
2023-03-27T21:41:20.289Z,10.18
2023-03-27T21:45:22.313Z,13.55
2023-03-27T21:49:25.589Z,12.98
2023-03-27T21:53:28.004Z,13.75
2023-03-27T21:57:29.950Z,14.68
2023-03-27T22:01:32.143Z,14.82
2023-03-27T22:05:38.035Z,12.30
2023-03-27T22:09:39.986Z,12.38
2023-03-27T22:13:43.394Z,9.93
2023-03-27T22:17:46.395Z,11.50
2023-03-27T22:21:48.395Z,12.05
2023-03-27T22:25:54.420Z,12.85
2023-03-27T22:29:56.461Z,11.00
2023-03-27T22:33:58.373Z,14.05
2023-03-27T22:38:01.363Z,9.25
2023-03-27T22:42:03.351Z,14.07
2023-03-27T22:46:06.373Z,11.70
2023-03-27T22:50:08.867Z,15.63
2023-03-27T22:54:10.818Z,13.52
2023-03-27T22:58:12.680Z,14.63
2023-03-27T23:02:14.702Z,17.85
2023-03-27T23:06:22.058Z,16.30
2023-03-27T23:10:23.989Z,13.50
2023-03-27T23:14:26.088Z,11.45
2023-03-27T23:18:28.009Z,10.80
2023-03-27T23:22:29.616Z,13.70
2023-03-27T23:26:31.618Z,13.02
2023-03-27T23:30:33.558Z,12.32
2023-03-27T23:34:35.669Z,9.82
2023-03-27T23:38:37.805Z,14.40
2023-03-27T23:42:39.723Z,11.50
2023-03-27T23:46:41.858Z,11.73
2023-03-27T23:50:45.314Z,10.70
2023-03-27T23:54:47.239Z,11.77
2023-03-27T23:58:49.170Z,27.23
